sensor_id;sensor_type;location;lat;lon;timestamp;pressure;altitude;pressure_sealevel;temperature;humidity
31331;BME280;34067;39.548;-76.088;2024-01-10T00:01:24;99204.26;;;9.23;100.00
31331;BME280;34067;39.548;-76.088;2024-01-10T00:03:52;99198.47;;;9.76;100.00
31331;BME280;34067;39.548;-76.088;2024-01-10T00:06:20;99160.84;;;9.02;100.00
31331;BME280;34067;39.548;-76.088;2024-01-10T00:08:48;99141.62;;;9.03;100.00
31331;BME280;34067;39.548;-76.088;2024-01-10T00:11:16;99134.11;;;9.10;100.00
31331;BME280;34067;39.548;-76.088;2024-01-10T00:13:44;99145.13;;;9.72;100.00
31331;BME280;34067;39.548;-76.088;2024-01-10T00:16:14;99129.02;;;9.27;100.00
31331;BME280;34067;39.548;-76.088;2024-01-10T00:18:42;99133.93;;;8.93;100.00
31331;BME280;34067;39.548;-76.088;2024-01-10T00:21:11;99125.43;;;9.70;100.00
31331;BME280;34067;39.548;-76.088;2024-01-10T00:23:38;99122.94;;;10.10;100.00
31331;BME280;34067;39.548;-76.088;2024-01-10T00:26:06;99122.74;;;10.67;100.00
31331;BME280;34067;39.548;-76.088;2024-01-10T00:28:34;99120.16;;;10.90;100.00
31331;BME280;34067;39.548;-76.088;2024-01-10T00:31:02;99127.85;;;11.24;100.00
31331;BME280;34067;39.548;-76.088;2024-01-10T00:33:30;99141.03;;;11.30;100.00
31331;BME280;34067;39.548;-76.088;2024-01-10T00:35:59;99098.03;;;10.98;100.00
31331;BME280;34067;39.548;-76.088;2024-01-10T00:38:26;99063.56;;;10.61;100.00
31331;BME280;34067;39.548;-76.088;2024-01-10T00:40:55;99028.22;;;10.64;100.00
31331;BME280;34067;39.548;-76.088;2024-01-10T00:43:23;98996.52;;;9.97;100.00
31331;BME280;34067;39.548;-76.088;2024-01-10T00:45:51;98992.86;;;10.24;100.00
31331;BME280;34067;39.548;-76.088;2024-01-10T00:48:19;98999.59;;;10.21;100.00
31331;BME280;34067;39.548;-76.088;2024-01-10T00:50:47;99030.48;;;10.60;100.00
31331;BME280;34067;39.548;-76.088;2024-01-10T00:53:15;99004.89;;;10.71;100.00
31331;BME280;34067;39.548;-76.088;2024-01-10T00:55:43;98999.32;;;11.09;100.00
31331;BME280;34067;39.548;-76.088;2024-01-10T00:58:10;98978.09;;;10.89;100.00
31331;BME280;34067;39.548;-76.088;2024-01-10T01:00:39;98964.85;;;11.44;100.00
31331;BME280;34067;39.548;-76.088;2024-01-10T01:03:07;98944.64;;;11.11;100.00
31331;BME280;34067;39.548;-76.088;2024-01-10T01:05:35;98946.55;;;11.26;100.00
31331;BME280;34067;39.548;-76.088;2024-01-10T01:08:03;98955.89;;;10.62;100.00
31331;BME280;34067;39.548;-76.088;2024-01-10T01:10:31;98972.16;;;10.76;100.00
31331;BME280;34067;39.548;-76.088;2024-01-10T01:12:59;98955.82;;;11.23;100.00
31331;BME280;34067;39.548;-76.088;2024-01-10T01:15:27;98965.96;;;10.91;100.00
31331;BME280;34067;39.548;-76.088;2024-01-10T01:17:55;99034.51;;;10.81;100.00
31331;BME280;34067;39.548;-76.088;2024-01-10T01:20:23;99169.68;;;10.83;100.00
31331;BME280;34067;39.548;-76.088;2024-01-10T01:22:51;99225.93;;;10.49;100.00
31331;BME280;34067;39.548;-76.088;2024-01-10T01:25:19;99219.29;;;11.15;100.00
31331;BME280;34067;39.548;-76.088;2024-01-10T01:27:47;99117.91;;;11.61;100.00
31331;BME280;34067;39.548;-76.088;2024-01-10T01:30:15;99155.19;;;11.90;100.00
31331;BME280;34067;39.548;-76.088;2024-01-10T01:32:43;99149.08;;;11.89;100.00
31331;BME280;34067;39.548;-76.088;2024-01-10T01:35:11;99111.66;;;12.62;100.00
31331;BME280;34067;39.548;-76.088;2024-01-10T01:37:39;99107.57;;;12.99;100.00
31331;BME280;34067;39.548;-76.088;2024-01-10T01:40:08;99097.19;;;12.90;100.00
31331;BME280;34067;39.548;-76.088;2024-01-10T01:42:36;99112.21;;;13.10;100.00
31331;BME280;34067;39.548;-76.088;2024-01-10T01:45:04;99100.48;;;13.45;100.00
31331;BME280;34067;39.548;-76.088;2024-01-10T01:47:32;99101.29;;;12.82;100.00
31331;BME280;34067;39.548;-76.088;2024-01-10T01:50:00;99085.15;;;13.19;100.00
31331;BME280;34067;39.548;-76.088;2024-01-10T01:52:30;99077.66;;;12.63;100.00
31331;BME280;34067;39.548;-76.088;2024-01-10T01:54:59;99062.03;;;12.67;100.00
31331;BME280;34067;39.548;-76.088;2024-01-10T01:57:27;99055.36;;;12.49;100.00
31331;BME280;34067;39.548;-76.088;2024-01-10T01:59:54;99053.78;;;12.88;100.00
31331;BME280;34067;39.548;-76.088;2024-01-10T02:02:22;99051.35;;;12.81;100.00
31331;BME280;34067;39.548;-76.088;2024-01-10T02:04:51;99024.49;;;13.03;100.00
31331;BME280;34067;39.548;-76.088;2024-01-10T02:07:19;99013.52;;;13.34;99.11
31331;BME280;34067;39.548;-76.088;2024-01-10T02:09:47;99006.07;;;13.48;98.22
31331;BME280;34067;39.548;-76.088;2024-01-10T02:12:15;99019.85;;;13.33;96.43
31331;BME280;34067;39.548;-76.088;2024-01-10T02:14:43;98999.03;;;13.16;96.60
31331;BME280;34067;39.548;-76.088;2024-01-10T02:17:11;98942.03;;;12.09;99.85
31331;BME280;34067;39.548;-76.088;2024-01-10T02:19:39;98953.03;;;13.26;93.48
31331;BME280;34067;39.548;-76.088;2024-01-10T02:22:07;99007.24;;;12.86;93.67
31331;BME280;34067;39.548;-76.088;2024-01-10T02:24:35;99015.99;;;12.84;92.58
31331;BME280;34067;39.548;-76.088;2024-01-10T02:27:03;98986.13;;;13.21;91.13
31331;BME280;34067;39.548;-76.088;2024-01-10T02:29:31;98906.90;;;12.47;91.26
31331;BME280;34067;39.548;-76.088;2024-01-10T02:31:59;98901.19;;;13.37;87.44
31331;BME280;34067;39.548;-76.088;2024-01-10T02:34:27;98844.29;;;13.14;80.49
31331;BME280;34067;39.548;-76.088;2024-01-10T02:36:57;98814.29;;;12.15;82.91
31331;BME280;34067;39.548;-76.088;2024-01-10T02:39:25;98822.39;;;11.99;92.14
31331;BME280;34067;39.548;-76.088;2024-01-10T02:41:53;98773.50;;;11.86;89.74
31331;BME280;34067;39.548;-76.088;2024-01-10T02:44:21;98788.27;;;11.59;91.94
31331;BME280;34067;39.548;-76.088;2024-01-10T02:46:49;98716.57;;;11.83;90.61
31331;BME280;34067;39.548;-76.088;2024-01-10T02:49:17;98667.29;;;11.46;85.64
31331;BME280;34067;39.548;-76.088;2024-01-10T02:51:45;98670.81;;;10.95;82.61
31331;BME280;34067;39.548;-76.088;2024-01-10T02:54:13;98703.73;;;11.36;85.35
31331;BME280;34067;39.548;-76.088;2024-01-10T02:56:41;98673.87;;;10.37;89.15
31331;BME280;34067;39.548;-76.088;2024-01-10T02:59:09;98681.20;;;10.45;92.54
31331;BME280;34067;39.548;-76.088;2024-01-10T03:01:37;98667.32;;;10.17;97.73
31331;BME280;34067;39.548;-76.088;2024-01-10T03:04:05;98553.86;;;9.16;100.00
31331;BME280;34067;39.548;-76.088;2024-01-10T03:06:33;98591.51;;;9.40;100.00
31331;BME280;34067;39.548;-76.088;2024-01-10T03:09:02;98596.67;;;9.79;100.00
31331;BME280;34067;39.548;-76.088;2024-01-10T03:11:29;98612.15;;;9.86;100.00
31331;BME280;34067;39.548;-76.088;2024-01-10T03:14:02;98606.87;;;10.67;100.00
31331;BME280;34067;39.548;-76.088;2024-01-10T03:16:30;98547.93;;;10.20;100.00
31331;BME280;34067;39.548;-76.088;2024-01-10T03:18:58;98369.25;;;9.63;100.00
31331;BME280;34067;39.548;-76.088;2024-01-10T03:21:26;98521.84;;;10.61;100.00
31331;BME280;34067;39.548;-76.088;2024-01-10T03:23:55;98526.17;;;11.00;98.59
31331;BME280;34067;39.548;-76.088;2024-01-10T03:26:23;98518.25;;;10.21;100.00
31331;BME280;34067;39.548;-76.088;2024-01-10T03:28:52;98502.98;;;11.09;98.31
31331;BME280;34067;39.548;-76.088;2024-01-10T03:31:20;98482.35;;;11.75;96.82
31331;BME280;34067;39.548;-76.088;2024-01-10T03:33:47;98525.43;;;11.69;92.91
31331;BME280;34067;39.548;-76.088;2024-01-10T03:36:17;98509.59;;;11.70;94.37
31331;BME280;34067;39.548;-76.088;2024-01-10T03:38:45;98507.87;;;12.03;96.13
31331;BME280;34067;39.548;-76.088;2024-01-10T03:41:14;98478.07;;;11.40;96.51
31331;BME280;34067;39.548;-76.088;2024-01-10T03:43:41;98444.65;;;11.58;97.32
31331;BME280;34067;39.548;-76.088;2024-01-10T03:46:10;98434.49;;;11.29;97.61
31331;BME280;34067;39.548;-76.088;2024-01-10T03:48:37;98446.79;;;11.65;96.21
31331;BME280;34067;39.548;-76.088;2024-01-10T03:51:05;98446.14;;;11.72;96.55
31331;BME280;34067;39.548;-76.088;2024-01-10T03:53:34;98433.39;;;12.25;97.50
31331;BME280;34067;39.548;-76.088;2024-01-10T03:56:04;98431.10;;;12.11;98.88
31331;BME280;34067;39.548;-76.088;2024-01-10T03:58:32;98448.55;;;11.66;99.90
31331;BME280;34067;39.548;-76.088;2024-01-10T04:01:04;98449.05;;;11.63;100.00
31331;BME280;34067;39.548;-76.088;2024-01-10T04:03:33;98443.45;;;12.53;100.00
31331;BME280;34067;39.548;-76.088;2024-01-10T04:06:01;98431.46;;;12.04;100.00
31331;BME280;34067;39.548;-76.088;2024-01-10T04:08:29;98420.09;;;12.02;99.76
31331;BME280;34067;39.548;-76.088;2024-01-10T04:10:57;98423.25;;;11.98;100.00
31331;BME280;34067;39.548;-76.088;2024-01-10T04:13:25;98436.72;;;12.37;97.45
31331;BME280;34067;39.548;-76.088;2024-01-10T04:15:53;98448.55;;;12.18;95.86
31331;BME280;34067;39.548;-76.088;2024-01-10T04:18:21;98449.38;;;12.11;96.52
31331;BME280;34067;39.548;-76.088;2024-01-10T04:20:50;98434.48;;;12.60;97.05
31331;BME280;34067;39.548;-76.088;2024-01-10T04:23:18;98442.04;;;12.77;96.64
31331;BME280;34067;39.548;-76.088;2024-01-10T04:25:46;98433.97;;;12.62;98.22
31331;BME280;34067;39.548;-76.088;2024-01-10T04:28:14;98419.28;;;12.93;97.55
31331;BME280;34067;39.548;-76.088;2024-01-10T04:30:42;98403.93;;;13.11;97.53
31331;BME280;34067;39.548;-76.088;2024-01-10T04:33:10;98388.57;;;12.72;98.23
31331;BME280;34067;39.548;-76.088;2024-01-10T04:35:38;98386.47;;;13.39;98.91
31331;BME280;34067;39.548;-76.088;2024-01-10T04:38:06;98376.39;;;13.19;96.67
31331;BME280;34067;39.548;-76.088;2024-01-10T04:40:34;98385.62;;;12.89;100.00
31331;BME280;34067;39.548;-76.088;2024-01-10T04:43:02;98398.85;;;12.44;100.00
31331;BME280;34067;39.548;-76.088;2024-01-10T04:45:30;98393.97;;;12.61;100.00
31331;BME280;34067;39.548;-76.088;2024-01-10T04:47:58;98381.97;;;12.56;100.00
31331;BME280;34067;39.548;-76.088;2024-01-10T04:50:26;98369.88;;;12.95;100.00
31331;BME280;34067;39.548;-76.088;2024-01-10T04:52:54;98369.86;;;12.12;100.00
31331;BME280;34067;39.548;-76.088;2024-01-10T04:55:22;98368.29;;;12.55;100.00
31331;BME280;34067;39.548;-76.088;2024-01-10T04:57:50;98361.39;;;13.09;100.00
31331;BME280;34067;39.548;-76.088;2024-01-10T05:00:18;98362.14;;;12.23;100.00
31331;BME280;34067;39.548;-76.088;2024-01-10T05:02:46;98360.30;;;12.71;100.00
31331;BME280;34067;39.548;-76.088;2024-01-10T05:05:14;98367.79;;;12.87;100.00
31331;BME280;34067;39.548;-76.088;2024-01-10T05:07:42;98364.29;;;12.73;100.00
31331;BME280;34067;39.548;-76.088;2024-01-10T05:10:10;98367.57;;;12.30;100.00
31331;BME280;34067;39.548;-76.088;2024-01-10T05:12:38;98361.82;;;12.61;100.00
31331;BME280;34067;39.548;-76.088;2024-01-10T05:15:07;98342.26;;;12.67;100.00
31331;BME280;34067;39.548;-76.088;2024-01-10T05:17:35;98358.77;;;12.78;100.00
31331;BME280;34067;39.548;-76.088;2024-01-10T05:20:04;98375.13;;;12.57;100.00
31331;BME280;34067;39.548;-76.088;2024-01-10T05:22:32;98373.64;;;12.54;100.00
31331;BME280;34067;39.548;-76.088;2024-01-10T05:25:00;98378.32;;;12.51;100.00
31331;BME280;34067;39.548;-76.088;2024-01-10T05:27:28;98377.29;;;12.62;100.00
31331;BME280;34067;39.548;-76.088;2024-01-10T05:29:56;98373.88;;;12.94;100.00
31331;BME280;34067;39.548;-76.088;2024-01-10T05:32:24;98353.00;;;13.07;100.00
31331;BME280;34067;39.548;-76.088;2024-01-10T05:34:52;98349.48;;;14.13;100.00
31331;BME280;34067;39.548;-76.088;2024-01-10T05:37:20;98341.76;;;13.53;98.36
31331;BME280;34067;39.548;-76.088;2024-01-10T05:39:48;98335.90;;;13.83;95.53
31331;BME280;34067;39.548;-76.088;2024-01-10T05:42:16;98334.48;;;14.24;95.79
31331;BME280;34067;39.548;-76.088;2024-01-10T05:44:44;98338.26;;;14.16;95.15
31331;BME280;34067;39.548;-76.088;2024-01-10T05:47:12;98341.27;;;13.79;93.51
31331;BME280;34067;39.548;-76.088;2024-01-10T05:49:40;98343.58;;;13.43;95.22
31331;BME280;34067;39.548;-76.088;2024-01-10T05:52:08;98344.66;;;13.43;97.30
31331;BME280;34067;39.548;-76.088;2024-01-10T05:54:36;98350.09;;;13.64;98.85
31331;BME280;34067;39.548;-76.088;2024-01-10T05:57:04;98358.97;;;14.10;98.09
31331;BME280;34067;39.548;-76.088;2024-01-10T05:59:32;98360.31;;;14.18;97.39
31331;BME280;34067;39.548;-76.088;2024-01-10T06:03:11;98364.37;;;14.10;94.36
31331;BME280;34067;39.548;-76.088;2024-01-10T06:05:39;98357.90;;;14.31;92.72
31331;BME280;34067;39.548;-76.088;2024-01-10T06:08:07;98354.83;;;14.50;89.53
31331;BME280;34067;39.548;-76.088;2024-01-10T06:10:35;98356.15;;;14.77;88.93
31331;BME280;34067;39.548;-76.088;2024-01-10T06:13:03;98363.33;;;14.58;88.84
31331;BME280;34067;39.548;-76.088;2024-01-10T06:15:31;98363.73;;;14.67;88.04
31331;BME280;34067;39.548;-76.088;2024-01-10T06:17:59;98359.34;;;14.15;86.45
31331;BME280;34067;39.548;-76.088;2024-01-10T06:20:27;98364.08;;;14.00;86.61
31331;BME280;34067;39.548;-76.088;2024-01-10T06:22:55;98359.16;;;13.91;86.48
31331;BME280;34067;39.548;-76.088;2024-01-10T06:25:23;98367.22;;;13.27;85.62
31331;BME280;34067;39.548;-76.088;2024-01-10T06:27:51;98371.99;;;13.68;85.99
31331;BME280;34067;39.548;-76.088;2024-01-10T06:30:19;98373.41;;;13.30;86.79
31331;BME280;34067;39.548;-76.088;2024-01-10T06:32:47;98385.95;;;13.33;85.86
31331;BME280;34067;39.548;-76.088;2024-01-10T06:35:15;98393.89;;;12.75;86.96
31331;BME280;34067;39.548;-76.088;2024-01-10T06:37:43;98387.81;;;13.09;85.56
31331;BME280;34067;39.548;-76.088;2024-01-10T06:40:11;98378.74;;;13.48;83.45
31331;BME280;34067;39.548;-76.088;2024-01-10T06:42:40;98366.32;;;13.09;84.23
31331;BME280;34067;39.548;-76.088;2024-01-10T06:45:09;98371.95;;;13.21;83.45
31331;BME280;34067;39.548;-76.088;2024-01-10T06:47:37;98378.20;;;13.19;82.54
31331;BME280;34067;39.548;-76.088;2024-01-10T06:50:06;98378.36;;;13.00;84.22
31331;BME280;34067;39.548;-76.088;2024-01-10T06:52:34;98365.40;;;13.33;81.56
31331;BME280;34067;39.548;-76.088;2024-01-10T06:55:03;98368.65;;;13.19;80.27
31331;BME280;34067;39.548;-76.088;2024-01-10T06:57:30;98377.68;;;13.57;78.46
31331;BME280;34067;39.548;-76.088;2024-01-10T06:59:58;98380.79;;;14.29;78.03
31331;BME280;34067;39.548;-76.088;2024-01-10T07:02:26;98379.00;;;14.06;76.73
31331;BME280;34067;39.548;-76.088;2024-01-10T07:04:54;98388.03;;;14.40;74.75
31331;BME280;34067;39.548;-76.088;2024-01-10T07:07:22;98388.95;;;13.90;75.39
31331;BME280;34067;39.548;-76.088;2024-01-10T07:09:50;98401.44;;;14.33;76.35
31331;BME280;34067;39.548;-76.088;2024-01-10T07:12:18;98401.88;;;13.78;76.56
31331;BME280;34067;39.548;-76.088;2024-01-10T07:14:46;98405.16;;;13.67;77.31
31331;BME280;34067;39.548;-76.088;2024-01-10T07:17:15;98420.65;;;13.34;76.69
31331;BME280;34067;39.548;-76.088;2024-01-10T07:19:43;98417.71;;;13.22;78.32
31331;BME280;34067;39.548;-76.088;2024-01-10T07:22:10;98410.27;;;12.97;79.20
31331;BME280;34067;39.548;-76.088;2024-01-10T07:24:39;98402.68;;;12.40;79.76
31331;BME280;34067;39.548;-76.088;2024-01-10T07:27:07;98410.98;;;12.12;79.95
31331;BME280;34067;39.548;-76.088;2024-01-10T07:29:35;98418.06;;;12.51;80.22
31331;BME280;34067;39.548;-76.088;2024-01-10T07:32:03;98414.18;;;12.29;80.00
31331;BME280;34067;39.548;-76.088;2024-01-10T07:34:31;98419.56;;;11.74;81.83
31331;BME280;34067;39.548;-76.088;2024-01-10T07:36:59;98421.12;;;11.57;80.48
31331;BME280;34067;39.548;-76.088;2024-01-10T07:39:27;98431.84;;;11.61;82.43
31331;BME280;34067;39.548;-76.088;2024-01-10T07:41:55;98438.34;;;12.17;81.50
31331;BME280;34067;39.548;-76.088;2024-01-10T07:44:24;98443.04;;;11.31;81.72
31331;BME280;34067;39.548;-76.088;2024-01-10T07:46:52;98436.96;;;11.46;82.93
31331;BME280;34067;39.548;-76.088;2024-01-10T07:49:20;98439.89;;;11.72;82.22
31331;BME280;34067;39.548;-76.088;2024-01-10T07:51:48;98445.06;;;12.46;82.90
31331;BME280;34067;39.548;-76.088;2024-01-10T07:54:16;98449.91;;;11.21;84.35
31331;BME280;34067;39.548;-76.088;2024-01-10T07:56:44;98454.01;;;10.93;83.87
31331;BME280;34067;39.548;-76.088;2024-01-10T07:59:12;98459.71;;;10.90;85.06
31331;BME280;34067;39.548;-76.088;2024-01-10T08:01:41;98459.40;;;10.17;80.86
31331;BME280;34067;39.548;-76.088;2024-01-10T08:04:09;98463.07;;;9.93;74.76
31331;BME280;34067;39.548;-76.088;2024-01-10T08:06:37;98478.33;;;10.73;68.46
31331;BME280;34067;39.548;-76.088;2024-01-10T08:09:05;98486.03;;;9.69;64.91
31331;BME280;34067;39.548;-76.088;2024-01-10T08:11:33;98491.94;;;9.58;63.93
31331;BME280;34067;39.548;-76.088;2024-01-10T08:14:01;98497.08;;;9.26;61.10
31331;BME280;34067;39.548;-76.088;2024-01-10T08:16:29;98496.81;;;9.46;61.80
31331;BME280;34067;39.548;-76.088;2024-01-10T08:18:57;98503.64;;;9.07;62.36
31331;BME280;34067;39.548;-76.088;2024-01-10T08:21:26;98519.78;;;10.14;61.92
31331;BME280;34067;39.548;-76.088;2024-01-10T08:23:54;98524.47;;;8.90;61.19
31331;BME280;34067;39.548;-76.088;2024-01-10T08:26:22;98528.38;;;9.24;60.71
31331;BME280;34067;39.548;-76.088;2024-01-10T08:28:50;98528.73;;;9.06;60.48
31331;BME280;34067;39.548;-76.088;2024-01-10T08:31:18;98527.97;;;8.80;60.02
31331;BME280;34067;39.548;-76.088;2024-01-10T08:33:46;98547.44;;;9.14;61.13
31331;BME280;34067;39.548;-76.088;2024-01-10T08:36:14;98543.77;;;9.74;59.08
31331;BME280;34067;39.548;-76.088;2024-01-10T08:38:42;98553.90;;;8.51;60.84
31331;BME280;34067;39.548;-76.088;2024-01-10T08:41:11;98560.75;;;8.79;58.99
31331;BME280;34067;39.548;-76.088;2024-01-10T08:43:39;98572.59;;;8.04;60.43
31331;BME280;34067;39.548;-76.088;2024-01-10T08:46:08;98583.29;;;7.90;60.53
31331;BME280;34067;39.548;-76.088;2024-01-10T08:48:37;98582.32;;;7.51;60.94
31331;BME280;34067;39.548;-76.088;2024-01-10T08:51:05;98591.71;;;8.65;57.10
31331;BME280;34067;39.548;-76.088;2024-01-10T08:53:32;98594.74;;;8.54;57.86
31331;BME280;34067;39.548;-76.088;2024-01-10T08:56:00;98592.83;;;9.40;55.93
31331;BME280;34067;39.548;-76.088;2024-01-10T08:58:29;98594.10;;;8.55;56.14
31331;BME280;34067;39.548;-76.088;2024-01-10T09:00:57;98598.82;;;8.03;55.58
31331;BME280;34067;39.548;-76.088;2024-01-10T09:03:25;98603.54;;;8.88;54.49
31331;BME280;34067;39.548;-76.088;2024-01-10T09:05:53;98607.96;;;9.10;55.15
31331;BME280;34067;39.548;-76.088;2024-01-10T09:08:21;98618.21;;;8.83;54.57
31331;BME280;34067;39.548;-76.088;2024-01-10T09:10:49;98608.37;;;8.33;56.29
31331;BME280;34067;39.548;-76.088;2024-01-10T09:13:17;98614.65;;;7.48;57.59
31331;BME280;34067;39.548;-76.088;2024-01-10T09:15:45;98614.29;;;8.41;56.97
31331;BME280;34067;39.548;-76.088;2024-01-10T09:18:13;98614.94;;;8.07;57.42
31331;BME280;34067;39.548;-76.088;2024-01-10T09:20:42;98606.73;;;7.83;58.21
31331;BME280;34067;39.548;-76.088;2024-01-10T09:23:10;98615.39;;;8.57;57.25
31331;BME280;34067;39.548;-76.088;2024-01-10T09:25:38;98625.60;;;8.46;56.81
31331;BME280;34067;39.548;-76.088;2024-01-10T09:28:06;98621.54;;;8.95;56.39
31331;BME280;34067;39.548;-76.088;2024-01-10T09:30:34;98629.93;;;7.65;58.38
31331;BME280;34067;39.548;-76.088;2024-01-10T09:33:03;98629.70;;;8.04;58.79
31331;BME280;34067;39.548;-76.088;2024-01-10T09:35:31;98633.41;;;8.05;56.69
31331;BME280;34067;39.548;-76.088;2024-01-10T09:37:59;98627.49;;;7.53;57.48
31331;BME280;34067;39.548;-76.088;2024-01-10T09:40:27;98630.78;;;9.21;55.82
31331;BME280;34067;39.548;-76.088;2024-01-10T09:42:55;98637.54;;;7.08;57.92
31331;BME280;34067;39.548;-76.088;2024-01-10T09:45:24;98637.59;;;9.28;55.83
31331;BME280;34067;39.548;-76.088;2024-01-10T09:47:57;98640.42;;;8.77;54.94
31331;BME280;34067;39.548;-76.088;2024-01-10T09:50:25;98657.27;;;9.08;54.78
31331;BME280;34067;39.548;-76.088;2024-01-10T09:52:57;98674.19;;;8.23;55.03
31331;BME280;34067;39.548;-76.088;2024-01-10T09:55:26;98683.70;;;8.39;54.80
31331;BME280;34067;39.548;-76.088;2024-01-10T09:57:59;98690.32;;;8.04;55.59
31331;BME280;34067;39.548;-76.088;2024-01-10T10:00:29;98697.53;;;8.56;53.62
31331;BME280;34067;39.548;-76.088;2024-01-10T10:02:57;98703.27;;;8.82;53.62
31331;BME280;34067;39.548;-76.088;2024-01-10T10:05:27;98712.98;;;8.33;53.21
31331;BME280;34067;39.548;-76.088;2024-01-10T10:07:55;98715.20;;;7.71;53.25
31331;BME280;34067;39.548;-76.088;2024-01-10T10:10:23;98734.07;;;7.43;53.69
31331;BME280;34067;39.548;-76.088;2024-01-10T10:12:53;98736.81;;;7.68;54.90
31331;BME280;34067;39.548;-76.088;2024-01-10T10:15:22;98738.33;;;8.44;53.98
31331;BME280;34067;39.548;-76.088;2024-01-10T10:17:50;98738.80;;;7.96;53.17
31331;BME280;34067;39.548;-76.088;2024-01-10T10:20:21;98741.78;;;8.90;53.21
31331;BME280;34067;39.548;-76.088;2024-01-10T10:23:06;98733.26;;;8.14;53.50
31331;BME280;34067;39.548;-76.088;2024-01-10T10:25:36;98735.05;;;7.86;54.02
31331;BME280;34067;39.548;-76.088;2024-01-10T10:28:05;98738.30;;;8.55;51.70
31331;BME280;34067;39.548;-76.088;2024-01-10T10:30:33;98747.12;;;9.23;51.80
31331;BME280;34067;39.548;-76.088;2024-01-10T10:33:02;98758.73;;;9.78;50.15
31331;BME280;34067;39.548;-76.088;2024-01-10T10:35:30;98758.97;;;9.70;50.74
31331;BME280;34067;39.548;-76.088;2024-01-10T10:37:59;98758.03;;;9.09;50.68
31331;BME280;34067;39.548;-76.088;2024-01-10T10:40:27;98763.89;;;8.85;50.73
31331;BME280;34067;39.548;-76.088;2024-01-10T10:42:56;98763.22;;;8.28;51.39
31331;BME280;34067;39.548;-76.088;2024-01-10T10:45:24;98759.67;;;8.23;51.60
31331;BME280;34067;39.548;-76.088;2024-01-10T10:47:57;98751.53;;;8.31;50.94
31331;BME280;34067;39.548;-76.088;2024-01-10T10:50:27;98761.43;;;7.81;51.38
31331;BME280;34067;39.548;-76.088;2024-01-10T10:52:55;98765.25;;;8.85;51.36
31331;BME280;34067;39.548;-76.088;2024-01-10T10:55:25;98767.16;;;9.43;50.97
31331;BME280;34067;39.548;-76.088;2024-01-10T10:57:56;98769.75;;;9.83;50.23
31331;BME280;34067;39.548;-76.088;2024-01-10T11:00:24;98770.52;;;9.83;50.09
31331;BME280;34067;39.548;-76.088;2024-01-10T11:02:53;98780.66;;;9.42;49.79
31331;BME280;34067;39.548;-76.088;2024-01-10T11:05:21;98789.52;;;8.16;50.66
31331;BME280;34067;39.548;-76.088;2024-01-10T11:07:49;98801.29;;;8.29;49.44
31331;BME280;34067;39.548;-76.088;2024-01-10T11:10:20;98805.42;;;7.42;50.79
31331;BME280;34067;39.548;-76.088;2024-01-10T11:13:03;98805.69;;;8.48;50.36
31331;BME280;34067;39.548;-76.088;2024-01-10T11:15:55;98811.37;;;8.14;50.29
31331;BME280;34067;39.548;-76.088;2024-01-10T11:18:39;98823.44;;;7.93;50.71
31331;BME280;34067;39.548;-76.088;2024-01-10T11:21:21;98835.67;;;6.65;51.50
31331;BME280;34067;39.548;-76.088;2024-01-10T11:23:53;98835.18;;;7.32;51.45
31331;BME280;34067;39.548;-76.088;2024-01-10T11:26:21;98844.68;;;6.81;51.41
31331;BME280;34067;39.548;-76.088;2024-01-10T11:28:50;98854.78;;;6.49;51.62
31331;BME280;34067;39.548;-76.088;2024-01-10T11:31:28;98869.25;;;6.89;51.62
31331;BME280;34067;39.548;-76.088;2024-01-10T11:33:57;98873.77;;;5.93;51.81
31331;BME280;34067;39.548;-76.088;2024-01-10T11:36:25;98876.58;;;7.17;51.20
31331;BME280;34067;39.548;-76.088;2024-01-10T11:38:57;98883.52;;;6.97;50.66
31331;BME280;34067;39.548;-76.088;2024-01-10T11:41:27;98896.01;;;7.51;49.64
31331;BME280;34067;39.548;-76.088;2024-01-10T11:44:28;98906.87;;;7.43;49.77
31331;BME280;34067;39.548;-76.088;2024-01-10T11:46:58;98915.47;;;7.30;49.66
31331;BME280;34067;39.548;-76.088;2024-01-10T11:49:26;98925.01;;;7.77;48.45
31331;BME280;34067;39.548;-76.088;2024-01-10T11:51:56;98930.67;;;8.26;46.78
31331;BME280;34067;39.548;-76.088;2024-01-10T11:54:41;98926.03;;;8.90;47.16
31331;BME280;34067;39.548;-76.088;2024-01-10T11:57:12;98920.61;;;9.24;46.96
31331;BME280;34067;39.548;-76.088;2024-01-10T11:59:43;98928.88;;;8.46;45.85
31331;BME280;34067;39.548;-76.088;2024-01-10T12:02:11;98930.00;;;8.55;45.50
31331;BME280;34067;39.548;-76.088;2024-01-10T12:04:39;98927.80;;;9.61;45.82
31331;BME280;34067;39.548;-76.088;2024-01-10T12:07:07;98932.64;;;7.25;45.61
31331;BME280;34067;39.548;-76.088;2024-01-10T12:09:35;98933.49;;;7.99;45.74
31331;BME280;34067;39.548;-76.088;2024-01-10T12:12:04;98929.83;;;9.52;44.85
31331;BME280;34067;39.548;-76.088;2024-01-10T12:14:32;98927.72;;;7.50;46.51
31331;BME280;34067;39.548;-76.088;2024-01-10T12:17:01;98943.06;;;7.44;46.64
31331;BME280;34067;39.548;-76.088;2024-01-10T12:19:29;98951.56;;;8.55;46.12
31331;BME280;34067;39.548;-76.088;2024-01-10T12:21:56;98964.93;;;7.56;45.55
31331;BME280;34067;39.548;-76.088;2024-01-10T12:24:27;98970.55;;;7.90;45.76
31331;BME280;34067;39.548;-76.088;2024-01-10T12:26:56;98982.12;;;7.12;46.66
31331;BME280;34067;39.548;-76.088;2024-01-10T12:29:23;98997.50;;;7.17;46.40
31331;BME280;34067;39.548;-76.088;2024-01-10T12:31:52;99003.22;;;7.78;46.56
31331;BME280;34067;39.548;-76.088;2024-01-10T12:34:20;99013.72;;;7.10;47.43
31331;BME280;34067;39.548;-76.088;2024-01-10T12:36:49;99015.99;;;7.94;46.78
31331;BME280;34067;39.548;-76.088;2024-01-10T12:39:17;99025.05;;;7.53;46.71
31331;BME280;34067;39.548;-76.088;2024-01-10T12:41:45;99019.21;;;6.99;46.43
31331;BME280;34067;39.548;-76.088;2024-01-10T12:44:13;99046.22;;;7.45;46.61
31331;BME280;34067;39.548;-76.088;2024-01-10T12:46:57;99043.42;;;6.41;46.83
31331;BME280;34067;39.548;-76.088;2024-01-10T12:49:25;99044.42;;;6.73;46.02